sensor_id;sensor_type;location;lat;lon;timestamp;P1;durP1;ratioP1;P2;durP2;ratioP2
67904;SDS011;54709;43.614;1.576;2022-11-11T00:00:36;14.80;;;7.72;;
67904;SDS011;54709;43.614;1.576;2022-11-11T00:03:01;14.57;;;7.13;;
67904;SDS011;54709;43.614;1.576;2022-11-11T00:05:27;14.85;;;7.70;;
67904;SDS011;54709;43.614;1.576;2022-11-11T00:07:53;10.57;;;7.75;;
67904;SDS011;54709;43.614;1.576;2022-11-11T00:10:27;14.93;;;8.45;;
67904;SDS011;54709;43.614;1.576;2022-11-11T00:12:53;12.98;;;8.23;;
67904;SDS011;54709;43.614;1.576;2022-11-11T00:15:22;12.50;;;7.03;;
67904;SDS011;54709;43.614;1.576;2022-11-11T00:17:48;14.55;;;7.75;;
67904;SDS011;54709;43.614;1.576;2022-11-11T00:20:32;10.57;;;7.05;;
67904;SDS011;54709;43.614;1.576;2022-11-11T00:23:19;10.73;;;6.80;;
67904;SDS011;54709;43.614;1.576;2022-11-11T00:26:05;14.35;;;7.00;;
67904;SDS011;54709;43.614;1.576;2022-11-11T00:28:31;13.07;;;6.65;;
67904;SDS011;54709;43.614;1.576;2022-11-11T00:31:00;12.98;;;6.28;;
67904;SDS011;54709;43.614;1.576;2022-11-11T00:33:26;12.02;;;6.13;;
67904;SDS011;54709;43.614;1.576;2022-11-11T00:35:52;11.88;;;6.35;;
67904;SDS011;54709;43.614;1.576;2022-11-11T00:38:18;13.52;;;6.95;;
67904;SDS011;54709;43.614;1.576;2022-11-11T00:41:02;9.85;;;6.00;;
67904;SDS011;54709;43.614;1.576;2022-11-11T00:43:27;12.35;;;6.70;;
67904;SDS011;54709;43.614;1.576;2022-11-11T00:45:53;10.73;;;6.75;;
67904;SDS011;54709;43.614;1.576;2022-11-11T00:48:39;10.68;;;5.82;;
67904;SDS011;54709;43.614;1.576;2022-11-11T00:51:23;11.82;;;5.70;;
67904;SDS011;54709;43.614;1.576;2022-11-11T00:53:48;10.02;;;5.90;;
67904;SDS011;54709;43.614;1.576;2022-11-11T00:56:14;12.63;;;5.60;;
67904;SDS011;54709;43.614;1.576;2022-11-11T00:58:39;12.30;;;5.65;;
67904;SDS011;54709;43.614;1.576;2022-11-11T01:01:04;7.95;;;5.43;;
67904;SDS011;54709;43.614;1.576;2022-11-11T01:03:30;12.32;;;5.88;;
67904;SDS011;54709;43.614;1.576;2022-11-11T01:05:58;9.60;;;5.47;;
67904;SDS011;54709;43.614;1.576;2022-11-11T01:08:24;7.43;;;5.43;;
67904;SDS011;54709;43.614;1.576;2022-11-11T01:10:50;9.30;;;5.40;;
67904;SDS011;54709;43.614;1.576;2022-11-11T01:15:46;8.48;;;5.28;;
67904;SDS011;54709;43.614;1.576;2022-11-11T01:18:14;6.30;;;4.60;;
67904;SDS011;54709;43.614;1.576;2022-11-11T01:20:41;12.65;;;5.57;;
67904;SDS011;54709;43.614;1.576;2022-11-11T01:23:07;8.18;;;4.45;;
67904;SDS011;54709;43.614;1.576;2022-11-11T01:25:33;9.15;;;5.10;;
67904;SDS011;54709;43.614;1.576;2022-11-11T01:28:00;8.63;;;5.45;;
67904;SDS011;54709;43.614;1.576;2022-11-11T01:30:26;7.63;;;5.40;;
67904;SDS011;54709;43.614;1.576;2022-11-11T01:32:52;9.80;;;5.40;;
67904;SDS011;54709;43.614;1.576;2022-11-11T01:35:17;9.80;;;5.20;;
67904;SDS011;54709;43.614;1.576;2022-11-11T01:37:42;7.93;;;5.75;;
67904;SDS011;54709;43.614;1.576;2022-11-11T01:40:08;8.98;;;5.57;;
67904;SDS011;54709;43.614;1.576;2022-11-11T01:45:46;11.55;;;6.18;;
67904;SDS011;54709;43.614;1.576;2022-11-11T01:48:19;10.27;;;5.10;;
67904;SDS011;54709;43.614;1.576;2022-11-11T01:51:09;11.63;;;5.45;;
67904;SDS011;54709;43.614;1.576;2022-11-11T01:53:38;8.45;;;5.13;;
67904;SDS011;54709;43.614;1.576;2022-11-11T01:56:04;6.93;;;4.85;;
67904;SDS011;54709;43.614;1.576;2022-11-11T01:58:29;6.63;;;4.78;;
67904;SDS011;54709;43.614;1.576;2022-11-11T02:00:55;9.15;;;5.00;;
67904;SDS011;54709;43.614;1.576;2022-11-11T02:03:24;9.95;;;5.00;;
67904;SDS011;54709;43.614;1.576;2022-11-11T02:05:51;7.28;;;4.82;;
67904;SDS011;54709;43.614;1.576;2022-11-11T02:08:24;8.32;;;4.80;;
67904;SDS011;54709;43.614;1.576;2022-11-11T02:11:19;7.43;;;4.80;;
67904;SDS011;54709;43.614;1.576;2022-11-11T02:14:04;8.45;;;5.30;;
67904;SDS011;54709;43.614;1.576;2022-11-11T02:16:48;7.32;;;4.82;;
67904;SDS011;54709;43.614;1.576;2022-11-11T02:19:13;10.80;;;4.80;;
67904;SDS011;54709;43.614;1.576;2022-11-11T02:21:43;8.00;;;5.07;;
67904;SDS011;54709;43.614;1.576;2022-11-11T02:24:14;9.70;;;4.68;;
67904;SDS011;54709;43.614;1.576;2022-11-11T02:26:41;9.32;;;4.50;;
67904;SDS011;54709;43.614;1.576;2022-11-11T02:29:08;8.18;;;3.83;;
67904;SDS011;54709;43.614;1.576;2022-11-11T02:31:36;9.20;;;4.20;;
67904;SDS011;54709;43.614;1.576;2022-11-11T02:34:02;5.13;;;3.90;;
67904;SDS011;54709;43.614;1.576;2022-11-11T02:36:27;7.32;;;4.13;;
67904;SDS011;54709;43.614;1.576;2022-11-11T02:38:52;7.85;;;4.07;;
67904;SDS011;54709;43.614;1.576;2022-11-11T02:41:18;7.45;;;4.00;;
67904;SDS011;54709;43.614;1.576;2022-11-11T02:44:02;6.28;;;3.67;;
67904;SDS011;54709;43.614;1.576;2022-11-11T02:46:27;6.97;;;3.60;;
67904;SDS011;54709;43.614;1.576;2022-11-11T02:48:53;4.57;;;3.60;;
67904;SDS011;54709;43.614;1.576;2022-11-11T02:51:18;8.00;;;3.78;;
67904;SDS011;54709;43.614;1.576;2022-11-11T02:53:44;5.47;;;3.67;;
67904;SDS011;54709;43.614;1.576;2022-11-11T02:56:09;5.75;;;3.65;;
67904;SDS011;54709;43.614;1.576;2022-11-11T02:58:34;4.88;;;3.33;;
67904;SDS011;54709;43.614;1.576;2022-11-11T03:01:00;9.88;;;4.03;;
67904;SDS011;54709;43.614;1.576;2022-11-11T03:03:25;6.85;;;3.53;;
67904;SDS011;54709;43.614;1.576;2022-11-11T03:05:50;6.88;;;4.15;;
67904;SDS011;54709;43.614;1.576;2022-11-11T03:08:17;9.23;;;3.65;;
67904;SDS011;54709;43.614;1.576;2022-11-11T03:10:42;4.90;;;3.55;;
67904;SDS011;54709;43.614;1.576;2022-11-11T03:13:07;4.30;;;3.50;;
67904;SDS011;54709;43.614;1.576;2022-11-11T03:15:33;4.72;;;3.45;;
67904;SDS011;54709;43.614;1.576;2022-11-11T03:17:58;5.90;;;3.83;;
67904;SDS011;54709;43.614;1.576;2022-11-11T03:20:24;5.82;;;3.53;;
67904;SDS011;54709;43.614;1.576;2022-11-11T03:23:09;8.05;;;3.97;;
67904;SDS011;54709;43.614;1.576;2022-11-11T03:25:36;9.13;;;4.13;;
67904;SDS011;54709;43.614;1.576;2022-11-11T03:30:49;9.27;;;4.00;;
67904;SDS011;54709;43.614;1.576;2022-11-11T03:33:15;6.22;;;3.92;;
67904;SDS011;54709;43.614;1.576;2022-11-11T03:35:42;8.07;;;3.80;;
67904;SDS011;54709;43.614;1.576;2022-11-11T03:38:10;7.18;;;3.67;;
67904;SDS011;54709;43.614;1.576;2022-11-11T03:40:50;7.32;;;4.10;;
67904;SDS011;54709;43.614;1.576;2022-11-11T03:43:17;6.47;;;3.75;;
67904;SDS011;54709;43.614;1.576;2022-11-11T03:45:44;8.48;;;3.83;;
67904;SDS011;54709;43.614;1.576;2022-11-11T03:48:10;6.47;;;4.25;;
67904;SDS011;54709;43.614;1.576;2022-11-11T03:50:35;4.97;;;3.58;;
67904;SDS011;54709;43.614;1.576;2022-11-11T03:53:01;4.88;;;3.60;;
67904;SDS011;54709;43.614;1.576;2022-11-11T03:55:26;4.97;;;4.00;;
67904;SDS011;54709;43.614;1.576;2022-11-11T03:57:52;6.10;;;3.70;;
67904;SDS011;54709;43.614;1.576;2022-11-11T04:00:22;6.22;;;4.03;;
67904;SDS011;54709;43.614;1.576;2022-11-11T04:02:49;9.43;;;4.03;;
67904;SDS011;54709;43.614;1.576;2022-11-11T04:05:33;6.47;;;3.65;;
67904;SDS011;54709;43.614;1.576;2022-11-11T04:08:17;4.85;;;3.60;;
67904;SDS011;54709;43.614;1.576;2022-11-11T04:11:06;7.75;;;3.78;;
67904;SDS011;54709;43.614;1.576;2022-11-11T04:13:47;6.68;;;3.50;;
67904;SDS011;54709;43.614;1.576;2022-11-11T04:16:32;7.43;;;3.67;;
67904;SDS011;54709;43.614;1.576;2022-11-11T04:18:57;5.75;;;4.05;;
67904;SDS011;54709;43.614;1.576;2022-11-11T04:21:41;5.90;;;3.80;;
67904;SDS011;54709;43.614;1.576;2022-11-11T04:24:13;4.75;;;3.55;;
67904;SDS011;54709;43.614;1.576;2022-11-11T04:26:59;6.82;;;3.70;;
67904;SDS011;54709;43.614;1.576;2022-11-11T04:29:26;5.22;;;3.40;;
67904;SDS011;54709;43.614;1.576;2022-11-11T04:31:52;7.75;;;3.90;;
67904;SDS011;54709;43.614;1.576;2022-11-11T04:34:40;8.80;;;3.53;;
67904;SDS011;54709;43.614;1.576;2022-11-11T04:37:06;5.30;;;3.60;;
67904;SDS011;54709;43.614;1.576;2022-11-11T04:39:31;5.45;;;3.25;;
67904;SDS011;54709;43.614;1.576;2022-11-11T04:42:15;7.00;;;3.58;;
67904;SDS011;54709;43.614;1.576;2022-11-11T04:44:40;4.93;;;3.55;;
67904;SDS011;54709;43.614;1.576;2022-11-11T04:47:24;6.53;;;3.40;;
67904;SDS011;54709;43.614;1.576;2022-11-11T04:49:50;7.97;;;3.95;;
67904;SDS011;54709;43.614;1.576;2022-11-11T04:52:15;5.53;;;3.30;;
67904;SDS011;54709;43.614;1.576;2022-11-11T04:54:57;7.18;;;3.80;;
67904;SDS011;54709;43.614;1.576;2022-11-11T04:57:42;5.63;;;3.63;;
67904;SDS011;54709;43.614;1.576;2022-11-11T05:00:09;4.45;;;3.35;;
67904;SDS011;54709;43.614;1.576;2022-11-11T05:02:37;4.35;;;3.45;;
67904;SDS011;54709;43.614;1.576;2022-11-11T05:05:24;6.72;;;3.30;;
67904;SDS011;54709;43.614;1.576;2022-11-11T05:07:50;5.40;;;3.33;;
67904;SDS011;54709;43.614;1.576;2022-11-11T05:10:34;4.07;;;3.20;;
67904;SDS011;54709;43.614;1.576;2022-11-11T05:13:00;5.43;;;3.33;;
67904;SDS011;54709;43.614;1.576;2022-11-11T05:15:44;6.90;;;3.10;;
67904;SDS011;54709;43.614;1.576;2022-11-11T05:18:28;5.05;;;3.10;;
67904;SDS011;54709;43.614;1.576;2022-11-11T05:21:19;5.13;;;3.10;;
67904;SDS011;54709;43.614;1.576;2022-11-11T05:23:50;4.13;;;3.03;;
67904;SDS011;54709;43.614;1.576;2022-11-11T05:26:34;6.38;;;3.35;;
67904;SDS011;54709;43.614;1.576;2022-11-11T05:28:59;5.18;;;3.13;;
67904;SDS011;54709;43.614;1.576;2022-11-11T05:31:25;6.03;;;3.40;;
67904;SDS011;54709;43.614;1.576;2022-11-11T05:33:51;6.15;;;3.80;;
67904;SDS011;54709;43.614;1.576;2022-11-11T05:36:17;6.28;;;3.30;;
67904;SDS011;54709;43.614;1.576;2022-11-11T05:38:42;6.60;;;3.78;;
67904;SDS011;54709;43.614;1.576;2022-11-11T05:41:07;5.60;;;3.45;;
67904;SDS011;54709;43.614;1.576;2022-11-11T05:43:33;6.10;;;3.67;;
67904;SDS011;54709;43.614;1.576;2022-11-11T05:45:58;4.90;;;3.35;;
67904;SDS011;54709;43.614;1.576;2022-11-11T05:48:24;5.60;;;3.28;;
67904;SDS011;54709;43.614;1.576;2022-11-11T05:50:49;4.90;;;3.20;;
67904;SDS011;54709;43.614;1.576;2022-11-11T05:53:14;4.95;;;3.47;;
67904;SDS011;54709;43.614;1.576;2022-11-11T05:55:40;6.70;;;3.42;;
67904;SDS011;54709;43.614;1.576;2022-11-11T05:58:05;5.82;;;3.80;;
67904;SDS011;54709;43.614;1.576;2022-11-11T06:00:31;6.47;;;3.97;;
67904;SDS011;54709;43.614;1.576;2022-11-11T06:03:02;5.13;;;3.60;;
67904;SDS011;54709;43.614;1.576;2022-11-11T06:05:29;5.40;;;3.80;;
67904;SDS011;54709;43.614;1.576;2022-11-11T06:07:55;4.63;;;3.50;;
67904;SDS011;54709;43.614;1.576;2022-11-11T06:10:20;5.07;;;4.00;;
67904;SDS011;54709;43.614;1.576;2022-11-11T06:12:55;4.30;;;3.90;;
67904;SDS011;54709;43.614;1.576;2022-11-11T06:15:33;7.20;;;3.80;;
67904;SDS011;54709;43.614;1.576;2022-11-11T06:17:59;4.82;;;3.80;;
67904;SDS011;54709;43.614;1.576;2022-11-11T06:20:24;7.53;;;4.30;;
67904;SDS011;54709;43.614;1.576;2022-11-11T06:22:50;6.32;;;3.70;;
67904;SDS011;54709;43.614;1.576;2022-11-11T06:25:22;5.75;;;3.80;;
67904;SDS011;54709;43.614;1.576;2022-11-11T06:28:09;3.72;;;3.28;;
67904;SDS011;54709;43.614;1.576;2022-11-11T06:30:35;4.68;;;3.30;;
67904;SDS011;54709;43.614;1.576;2022-11-11T06:33:01;5.97;;;3.45;;
67904;SDS011;54709;43.614;1.576;2022-11-11T06:35:27;4.50;;;3.60;;
67904;SDS011;54709;43.614;1.576;2022-11-11T06:37:53;7.95;;;3.45;;
67904;SDS011;54709;43.614;1.576;2022-11-11T06:40:18;4.72;;;3.38;;
67904;SDS011;54709;43.614;1.576;2022-11-11T06:42:43;5.82;;;3.35;;
67904;SDS011;54709;43.614;1.576;2022-11-11T06:45:09;4.63;;;3.45;;
67904;SDS011;54709;43.614;1.576;2022-11-11T06:47:34;6.18;;;3.38;;
67904;SDS011;54709;43.614;1.576;2022-11-11T06:50:00;4.85;;;3.33;;
67904;SDS011;54709;43.614;1.576;2022-11-11T06:52:25;5.30;;;3.22;;
67904;SDS011;54709;43.614;1.576;2022-11-11T06:54:50;6.15;;;3.53;;
67904;SDS011;54709;43.614;1.576;2022-11-11T06:57:16;4.78;;;3.28;;
67904;SDS011;54709;43.614;1.576;2022-11-11T06:59:41;6.22;;;3.67;;
67904;SDS011;54709;43.614;1.576;2022-11-11T07:02:12;5.07;;;3.55;;
67904;SDS011;54709;43.614;1.576;2022-11-11T07:04:38;6.68;;;3.92;;
67904;SDS011;54709;43.614;1.576;2022-11-11T07:07:03;8.00;;;3.95;;
67904;SDS011;54709;43.614;1.576;2022-11-11T07:09:29;5.75;;;3.78;;
67904;SDS011;54709;43.614;1.576;2022-11-11T07:11:54;4.63;;;3.47;;
67904;SDS011;54709;43.614;1.576;2022-11-11T07:14:19;6.55;;;3.95;;
67904;SDS011;54709;43.614;1.576;2022-11-11T07:16:45;6.38;;;4.15;;
67904;SDS011;54709;43.614;1.576;2022-11-11T07:19:10;7.07;;;4.20;;
67904;SDS011;54709;43.614;1.576;2022-11-11T07:21:35;7.85;;;4.00;;
67904;SDS011;54709;43.614;1.576;2022-11-11T07:24:01;6.75;;;4.57;;
67904;SDS011;54709;43.614;1.576;2022-11-11T07:26:26;7.78;;;4.05;;
67904;SDS011;54709;43.614;1.576;2022-11-11T07:28:52;6.97;;;4.20;;
67904;SDS011;54709;43.614;1.576;2022-11-11T07:31:17;7.78;;;4.18;;
67904;SDS011;54709;43.614;1.576;2022-11-11T07:33:42;8.70;;;4.20;;
67904;SDS011;54709;43.614;1.576;2022-11-11T07:36:08;7.85;;;4.18;;
67904;SDS011;54709;43.614;1.576;2022-11-11T07:38:33;9.63;;;4.05;;
67904;SDS011;54709;43.614;1.576;2022-11-11T07:40:59;9.27;;;4.05;;
67904;SDS011;54709;43.614;1.576;2022-11-11T07:43:24;14.10;;;8.10;;
67904;SDS011;54709;43.614;1.576;2022-11-11T07:45:50;14.68;;;9.82;;
67904;SDS011;54709;43.614;1.576;2022-11-11T07:48:15;14.95;;;10.68;;
67904;SDS011;54709;43.614;1.576;2022-11-11T07:50:41;18.85;;;13.60;;
67904;SDS011;54709;43.614;1.576;2022-11-11T07:53:06;19.92;;;10.32;;
67904;SDS011;54709;43.614;1.576;2022-11-11T07:55:31;16.50;;;7.03;;
67904;SDS011;54709;43.614;1.576;2022-11-11T07:57:57;19.17;;;12.90;;
67904;SDS011;54709;43.614;1.576;2022-11-11T08:00:22;18.58;;;8.52;;
67904;SDS011;54709;43.614;1.576;2022-11-11T08:02:48;17.63;;;8.52;;
67904;SDS011;54709;43.614;1.576;2022-11-11T08:05:14;17.02;;;8.05;;
67904;SDS011;54709;43.614;1.576;2022-11-11T08:07:40;14.43;;;8.48;;
67904;SDS011;54709;43.614;1.576;2022-11-11T08:10:06;14.68;;;6.80;;
67904;SDS011;54709;43.614;1.576;2022-11-11T08:12:32;8.73;;;5.15;;
67904;SDS011;54709;43.614;1.576;2022-11-11T08:15:16;13.70;;;4.22;;
67904;SDS011;54709;43.614;1.576;2022-11-11T08:17:41;12.65;;;5.03;;
67904;SDS011;54709;43.614;1.576;2022-11-11T08:20:07;8.10;;;4.80;;
67904;SDS011;54709;43.614;1.576;2022-11-11T08:22:36;6.28;;;3.83;;
67904;SDS011;54709;43.614;1.576;2022-11-11T08:25:03;9.43;;;4.03;;
67904;SDS011;54709;43.614;1.576;2022-11-11T08:27:30;7.55;;;3.30;;
67904;SDS011;54709;43.614;1.576;2022-11-11T08:29:55;10.95;;;4.07;;
67904;SDS011;54709;43.614;1.576;2022-11-11T08:32:21;6.97;;;3.17;;
67904;SDS011;54709;43.614;1.576;2022-11-11T08:34:46;8.77;;;3.10;;
67904;SDS011;54709;43.614;1.576;2022-11-11T08:37:11;10.25;;;3.08;;
67904;SDS011;54709;43.614;1.576;2022-11-11T08:39:37;6.97;;;2.80;;
67904;SDS011;54709;43.614;1.576;2022-11-11T08:42:02;7.43;;;2.92;;
67904;SDS011;54709;43.614;1.576;2022-11-11T08:44:27;6.82;;;2.92;;
67904;SDS011;54709;43.614;1.576;2022-11-11T08:46:53;10.27;;;3.05;;
67904;SDS011;54709;43.614;1.576;2022-11-11T08:49:18;6.45;;;3.05;;
67904;SDS011;54709;43.614;1.576;2022-11-11T08:51:44;7.15;;;2.67;;
67904;SDS011;54709;43.614;1.576;2022-11-11T08:54:09;7.63;;;2.80;;
67904;SDS011;54709;43.614;1.576;2022-11-11T08:56:34;6.55;;;2.70;;
67904;SDS011;54709;43.614;1.576;2022-11-11T08:59:00;8.73;;;2.45;;
67904;SDS011;54709;43.614;1.576;2022-11-11T09:01:25;5.35;;;2.10;;
67904;SDS011;54709;43.614;1.576;2022-11-11T09:03:50;5.93;;;2.05;;
67904;SDS011;54709;43.614;1.576;2022-11-11T09:06:16;6.60;;;2.47;;
67904;SDS011;54709;43.614;1.576;2022-11-11T09:08:42;6.95;;;1.98;;
67904;SDS011;54709;43.614;1.576;2022-11-11T09:11:08;7.45;;;2.03;;
67904;SDS011;54709;43.614;1.576;2022-11-11T09:13:33;6.72;;;2.20;;
67904;SDS011;54709;43.614;1.576;2022-11-11T09:15:58;5.45;;;2.03;;
67904;SDS011;54709;43.614;1.576;2022-11-11T09:18:24;3.85;;;1.70;;
67904;SDS011;54709;43.614;1.576;2022-11-11T09:20:50;5.15;;;1.80;;
67904;SDS011;54709;43.614;1.576;2022-11-11T09:23:15;7.07;;;2.10;;
67904;SDS011;54709;43.614;1.576;2022-11-11T09:25:41;5.18;;;1.80;;
67904;SDS011;54709;43.614;1.576;2022-11-11T09:28:06;3.10;;;1.70;;
67904;SDS011;54709;43.614;1.576;2022-11-11T09:30:31;5.13;;;1.80;;
67904;SDS011;54709;43.614;1.576;2022-11-11T09:33:01;7.00;;;1.80;;
67904;SDS011;54709;43.614;1.576;2022-11-11T09:35:27;9.00;;;2.13;;
67904;SDS011;54709;43.614;1.576;2022-11-11T09:37:56;4.53;;;1.63;;
67904;SDS011;54709;43.614;1.576;2022-11-11T09:40:24;3.38;;;1.60;;
67904;SDS011;54709;43.614;1.576;2022-11-11T09:45:55;6.57;;;1.83;;
67904;SDS011;54709;43.614;1.576;2022-11-11T09:51:17;5.88;;;1.67;;
67904;SDS011;54709;43.614;1.576;2022-11-11T09:53:52;4.28;;;1.55;;
67904;SDS011;54709;43.614;1.576;2022-11-11T09:56:21;4.15;;;1.63;;
67904;SDS011;54709;43.614;1.576;2022-11-11T09:59:02;3.40;;;1.50;;
67904;SDS011;54709;43.614;1.576;2022-11-11T10:01:36;3.17;;;1.50;;
67904;SDS011;54709;43.614;1.576;2022-11-11T10:06:29;4.63;;;1.73;;
67904;SDS011;54709;43.614;1.576;2022-11-11T10:08:59;5.47;;;1.85;;
67904;SDS011;54709;43.614;1.576;2022-11-11T10:14:13;6.55;;;1.90;;
67904;SDS011;54709;43.614;1.576;2022-11-11T10:21:51;3.85;;;1.55;;
67904;SDS011;54709;43.614;1.576;2022-11-11T10:24:24;4.55;;;1.80;;
67904;SDS011;54709;43.614;1.576;2022-11-11T10:26:52;6.57;;;1.80;;
67904;SDS011;54709;43.614;1.576;2022-11-11T10:29:18;5.07;;;1.67;;
67904;SDS011;54709;43.614;1.576;2022-11-11T10:31:53;6.15;;;1.77;;
67904;SDS011;54709;43.614;1.576;2022-11-11T10:34:21;5.30;;;1.60;;
67904;SDS011;54709;43.614;1.576;2022-11-11T10:36:52;3.38;;;1.50;;
67904;SDS011;54709;43.614;1.576;2022-11-11T10:39:28;4.93;;;1.40;;
67904;SDS011;54709;43.614;1.576;2022-11-11T10:42:01;3.30;;;1.55;;
67904;SDS011;54709;43.614;1.576;2022-11-11T10:44:27;5.25;;;1.60;;
67904;SDS011;54709;43.614;1.576;2022-11-11T10:49:34;6.93;;;2.00;;
67904;SDS011;54709;43.614;1.576;2022-11-11T10:52:11;5.13;;;1.58;;
67904;SDS011;54709;43.614;1.576;2022-11-11T10:54:44;7.05;;;1.45;;
67904;SDS011;54709;43.614;1.576;2022-11-11T11:02:36;5.07;;;1.75;;
67904;SDS011;54709;43.614;1.576;2022-11-11T11:05:30;5.25;;;1.50;;
67904;SDS011;54709;43.614;1.576;2022-11-11T11:08:00;6.55;;;1.50;;
67904;SDS011;54709;43.614;1.576;2022-11-11T11:10:51;5.32;;;1.73;;
67904;SDS011;54709;43.614;1.576;2022-11-11T11:13:27;5.40;;;1.65;;
67904;SDS011;54709;43.614;1.576;2022-11-11T11:15:58;5.18;;;1.40;;
67904;SDS011;54709;43.614;1.576;2022-11-11T11:18:28;4.27;;;1.37;;
67904;SDS011;54709;43.614;1.576;2022-11-11T11:20:54;3.50;;;1.30;;
67904;SDS011;54709;43.614;1.576;2022-11-11T11:23:39;8.23;;;1.30;;
67904;SDS011;54709;43.614;1.576;2022-11-11T11:26:06;7.05;;;1.80;;
67904;SDS011;54709;43.614;1.576;2022-11-11T11:28:32;4.32;;;1.42;;
67904;SDS011;54709;43.614;1.576;2022-11-11T11:31:02;6.85;;;1.42;;
67904;SDS011;54709;43.614;1.576;2022-11-11T11:36:23;3.40;;;1.23;;
67904;SDS011;54709;43.614;1.576;2022-11-11T11:38:48;3.58;;;1.40;;
67904;SDS011;54709;43.614;1.576;2022-11-11T11:41:15;4.15;;;1.63;;
67904;SDS011;54709;43.614;1.576;2022-11-11T11:43:43;3.55;;;1.60;;
67904;SDS011;54709;43.614;1.576;2022-11-11T11:46:17;3.75;;;1.30;;
67904;SDS011;54709;43.614;1.576;2022-11-11T11:54:12;4.38;;;1.50;;
67904;SDS011;54709;43.614;1.576;2022-11-11T11:56:53;5.78;;;1.40;;
67904;SDS011;54709;43.614;1.576;2022-11-11T11:59:22;7.68;;;1.65;;
67904;SDS011;54709;43.614;1.576;2022-11-11T12:07:46;4.75;;;1.75;;
67904;SDS011;54709;43.614;1.576;2022-11-11T12:13:01;6.22;;;1.67;;
67904;SDS011;54709;43.614;1.576;2022-11-11T12:23:49;3.80;;;1.52;;
67904;SDS011;54709;43.614;1.576;2022-11-11T12:31:28;5.03;;;1.75;;
67904;SDS011;54709;43.614;1.576;2022-11-11T12:36:35;6.38;;;1.70;;
67904;SDS011;54709;43.614;1.576;2022-11-11T12:45:14;7.57;;;1.90;;
67904;SDS011;54709;43.614;1.576;2022-11-11T12:48:02;6.97;;;1.67;;
67904;SDS011;54709;43.614;1.576;2022-11-11T12:50:40;8.23;;;1.45;;
67904;SDS011;54709;43.614;1.576;2022-11-11T13:04:31;6.20;;;1.77;;
67904;SDS011;54709;43.614;1.576;2022-11-11T13:07:08;8.82;;;1.70;;
67904;SDS011;54709;43.614;1.576;2022-11-11T13:09:42;5.18;;;1.90;;
67904;SDS011;54709;43.614;1.576;2022-11-11T13:17:24;9.30;;;1.98;;
67904;SDS011;54709;43.614;1.576;2022-11-11T13:19:55;3.85;;;1.67;;
67904;SDS011;54709;43.614;1.576;2022-11-11T13:22:28;4.43;;;1.70;;
67904;SDS011;54709;43.614;1.576;2022-11-11T13:24:54;7.65;;;2.13;;
67904;SDS011;54709;43.614;1.576;2022-11-11T13:32:32;4.15;;;1.80;;
67904;SDS011;54709;43.614;1.576;2022-11-11T13:37:28;6.75;;;2.20;;
67904;SDS011;54709;43.614;1.576;2022-11-11T13:40:08;6.03;;;2.30;;
67904;SDS011;54709;43.614;1.576;2022-11-11T13:42:41;4.55;;;1.77;;
67904;SDS011;54709;43.614;1.576;2022-11-11T13:45:20;6.60;;;1.83;;
67904;SDS011;54709;43.614;1.576;2022-11-11T13:47:52;10.00;;;2.45;;
67904;SDS011;54709;43.614;1.576;2022-11-11T13:50:26;12.13;;;2.20;;
67904;SDS011;54709;43.614;1.576;2022-11-11T13:53:03;7.80;;;2.03;;
67904;SDS011;54709;43.614;1.576;2022-11-11T13:55:40;9.82;;;2.10;;
67904;SDS011;54709;43.614;1.576;2022-11-11T13:58:16;11.68;;;2.40;;
67904;SDS011;54709;43.614;1.576;2022-11-11T14:00:47;10.60;;;2.50;;
67904;SDS011;54709;43.614;1.576;2022-11-11T14:13:48;8.55;;;2.50;;
67904;SDS011;54709;43.614;1.576;2022-11-11T14:16:28;5.95;;;2.20;;
67904;SDS011;54709;43.614;1.576;2022-11-11T14:18:59;6.40;;;2.00;;
67904;SDS011;54709;43.614;1.576;2022-11-11T14:21:51;6.10;;;2.30;;
67904;SDS011;54709;43.614;1.576;2022-11-11T14:29:33;5.97;;;1.95;;
67904;SDS011;54709;43.614;1.576;2022-11-11T14:32:08;4.80;;;2.20;;
67904;SDS011;54709;43.614;1.576;2022-11-11T14:34:41;6.07;;;2.00;;
67904;SDS011;54709;43.614;1.576;2022-11-11T14:39:49;7.57;;;2.55;;
67904;SDS011;54709;43.614;1.576;2022-11-11T14:45:00;7.80;;;1.90;;
67904;SDS011;54709;43.614;1.576;2022-11-11T14:47:33;3.97;;;1.80;;
67904;SDS011;54709;43.614;1.576;2022-11-11T14:50:00;7.28;;;2.03;;
67904;SDS011;54709;43.614;1.576;2022-11-11T14:57:36;8.68;;;2.63;;
67904;SDS011;54709;43.614;1.576;2022-11-11T15:00:03;6.18;;;1.75;;
67904;SDS011;54709;43.614;1.576;2022-11-11T15:02:37;6.50;;;1.88;;
67904;SDS011;54709;43.614;1.576;2022-11-11T15:05:10;5.88;;;1.70;;
67904;SDS011;54709;43.614;1.576;2022-11-11T15:07:58;8.38;;;2.35;;
67904;SDS011;54709;43.614;1.576;2022-11-11T15:10:31;9.77;;;2.42;;
67904;SDS011;54709;43.614;1.576;2022-11-11T15:13:08;5.45;;;2.15;;
67904;SDS011;54709;43.614;1.576;2022-11-11T15:21:07;7.32;;;1.98;;
67904;SDS011;54709;43.614;1.576;2022-11-11T15:29:50;4.10;;;1.73;;
67904;SDS011;54709;43.614;1.576;2022-11-11T15:32:32;6.03;;;2.00;;
67904;SDS011;54709;43.614;1.576;2022-11-11T15:38:14;6.15;;;1.80;;
67904;SDS011;54709;43.614;1.576;2022-11-11T15:43:12;5.97;;;1.73;;
67904;SDS011;54709;43.614;1.576;2022-11-11T15:45:45;8.50;;;1.88;;
67904;SDS011;54709;43.614;1.576;2022-11-11T15:48:19;4.82;;;1.73;;
67904;SDS011;54709;43.614;1.576;2022-11-11T15:50:46;5.80;;;2.03;;
67904;SDS011;54709;43.614;1.576;2022-11-11T15:53:12;6.28;;;1.90;;
67904;SDS011;54709;43.614;1.576;2022-11-11T15:55:38;7.82;;;1.85;;
67904;SDS011;54709;43.614;1.576;2022-11-11T15:58:08;5.38;;;1.73;;
67904;SDS011;54709;43.614;1.576;2022-11-11T16:00:39;6.47;;;1.92;;
67904;SDS011;54709;43.614;1.576;2022-11-11T16:03:05;5.35;;;1.80;;
67904;SDS011;54709;43.614;1.576;2022-11-11T16:05:37;6.07;;;1.80;;
67904;SDS011;54709;43.614;1.576;2022-11-11T16:08:06;5.35;;;1.83;;
67904;SDS011;54709;43.614;1.576;2022-11-11T16:10:34;6.30;;;1.83;;
67904;SDS011;54709;43.614;1.576;2022-11-11T16:13:13;4.88;;;1.60;;
67904;SDS011;54709;43.614;1.576;2022-11-11T16:18:54;9.75;;;1.80;;
67904;SDS011;54709;43.614;1.576;2022-11-11T16:21:32;5.70;;;1.48;;
67904;SDS011;54709;43.614;1.576;2022-11-11T16:24:01;5.07;;;1.50;;
67904;SDS011;54709;43.614;1.576;2022-11-11T16:26:27;5.47;;;1.77;;
67904;SDS011;54709;43.614;1.576;2022-11-11T16:28:56;4.82;;;1.70;;
67904;SDS011;54709;43.614;1.576;2022-11-11T16:34:00;5.88;;;1.60;;
67904;SDS011;54709;43.614;1.576;2022-11-11T16:37:00;7.80;;;1.80;;
67904;SDS011;54709;43.614;1.576;2022-11-11T16:39:33;6.78;;;1.98;;
67904;SDS011;54709;43.614;1.576;2022-11-11T16:42:00;6.38;;;2.00;;
67904;SDS011;54709;43.614;1.576;2022-11-11T16:44:40;6.65;;;1.90;;
67904;SDS011;54709;43.614;1.576;2022-11-11T16:47:36;8.18;;;2.20;;
67904;SDS011;54709;43.614;1.576;2022-11-11T16:52:59;4.70;;;2.10;;
67904;SDS011;54709;43.614;1.576;2022-11-11T16:55:34;7.35;;;2.25;;
67904;SDS011;54709;43.614;1.576;2022-11-11T16:58:11;5.18;;;1.80;;
67904;SDS011;54709;43.614;1.576;2022-11-11T17:00:38;8.60;;;1.85;;
67904;SDS011;54709;43.614;1.576;2022-11-11T17:03:17;8.65;;;2.25;;
67904;SDS011;54709;43.614;1.576;2022-11-11T17:05:52;9.55;;;1.90;;
67904;SDS011;54709;43.614;1.576;2022-11-11T17:08:26;7.47;;;2.00;;
67904;SDS011;54709;43.614;1.576;2022-11-11T17:11:02;8.80;;;1.95;;
67904;SDS011;54709;43.614;1.576;2022-11-11T17:13:29;8.25;;;2.15;;
67904;SDS011;54709;43.614;1.576;2022-11-11T17:15:55;6.68;;;2.03;;
67904;SDS011;54709;43.614;1.576;2022-11-11T17:18:22;7.22;;;2.10;;
67904;SDS011;54709;43.614;1.576;2022-11-11T17:20:48;8.65;;;2.08;;
67904;SDS011;54709;43.614;1.576;2022-11-11T17:23:15;6.97;;;2.03;;
67904;SDS011;54709;43.614;1.576;2022-11-11T17:25:40;4.22;;;1.95;;
67904;SDS011;54709;43.614;1.576;2022-11-11T17:28:06;3.67;;;1.63;;
67904;SDS011;54709;43.614;1.576;2022-11-11T17:30:31;6.75;;;1.90;;